sensor_id;sensor_type;location;lat;lon;timestamp;P1;durP1;ratioP1;P2;durP2;ratioP2
38111;SDS011;64011;56.312;44.048;2024-01-11T00:01:48;2.80;;;0.98;;
38111;SDS011;64011;56.312;44.048;2024-01-11T00:03:49;3.90;;;1.05;;
38111;SDS011;64011;56.312;44.048;2024-01-11T00:05:50;9.73;;;1.35;;
38111;SDS011;64011;56.312;44.048;2024-01-11T00:07:51;8.15;;;1.63;;
38111;SDS011;64011;56.312;44.048;2024-01-11T00:09:52;3.08;;;1.00;;
38111;SDS011;64011;56.312;44.048;2024-01-11T00:11:53;5.63;;;1.50;;
38111;SDS011;64011;56.312;44.048;2024-01-11T00:13:53;6.28;;;1.45;;
38111;SDS011;64011;56.312;44.048;2024-01-11T00:15:58;4.90;;;1.30;;
38111;SDS011;64011;56.312;44.048;2024-01-11T00:17:59;4.40;;;1.10;;
38111;SDS011;64011;56.312;44.048;2024-01-11T00:20:00;1.95;;;0.68;;
38111;SDS011;64011;56.312;44.048;2024-01-11T00:22:01;8.90;;;1.40;;
38111;SDS011;64011;56.312;44.048;2024-01-11T00:24:02;7.65;;;2.22;;
38111;SDS011;64011;56.312;44.048;2024-01-11T00:26:03;2.90;;;0.93;;
38111;SDS011;64011;56.312;44.048;2024-01-11T00:28:04;10.05;;;1.75;;
38111;SDS011;64011;56.312;44.048;2024-01-11T00:30:06;4.90;;;0.95;;
38111;SDS011;64011;56.312;44.048;2024-01-11T00:32:09;4.63;;;1.17;;
38111;SDS011;64011;56.312;44.048;2024-01-11T00:34:10;2.60;;;0.70;;
38111;SDS011;64011;56.312;44.048;2024-01-11T00:36:10;5.88;;;1.25;;
38111;SDS011;64011;56.312;44.048;2024-01-11T00:38:11;1.33;;;0.60;;
38111;SDS011;64011;56.312;44.048;2024-01-11T00:40:12;4.18;;;1.17;;
38111;SDS011;64011;56.312;44.048;2024-01-11T00:42:13;7.57;;;1.95;;
38111;SDS011;64011;56.312;44.048;2024-01-11T00:44:13;3.38;;;0.90;;
38111;SDS011;64011;56.312;44.048;2024-01-11T00:46:14;5.05;;;1.23;;
38111;SDS011;64011;56.312;44.048;2024-01-11T00:48:16;6.18;;;1.20;;
38111;SDS011;64011;56.312;44.048;2024-01-11T00:50:17;5.93;;;1.00;;
38111;SDS011;64011;56.312;44.048;2024-01-11T00:52:19;5.78;;;1.10;;
38111;SDS011;64011;56.312;44.048;2024-01-11T00:54:20;4.95;;;1.08;;
38111;SDS011;64011;56.312;44.048;2024-01-11T00:56:20;4.82;;;1.30;;
38111;SDS011;64011;56.312;44.048;2024-01-11T00:58:21;3.75;;;1.15;;
38111;SDS011;64011;56.312;44.048;2024-01-11T01:00:22;4.75;;;1.00;;
38111;SDS011;64011;56.312;44.048;2024-01-11T01:02:23;5.05;;;1.08;;
38111;SDS011;64011;56.312;44.048;2024-01-11T01:04:25;4.60;;;0.93;;
38111;SDS011;64011;56.312;44.048;2024-01-11T01:06:26;1.98;;;0.77;;
38111;SDS011;64011;56.312;44.048;2024-01-11T01:08:27;6.78;;;1.13;;
38111;SDS011;64011;56.312;44.048;2024-01-11T01:10:27;5.72;;;1.42;;
38111;SDS011;64011;56.312;44.048;2024-01-11T01:12:28;6.60;;;1.05;;
38111;SDS011;64011;56.312;44.048;2024-01-11T01:14:29;5.00;;;1.05;;
38111;SDS011;64011;56.312;44.048;2024-01-11T01:16:30;2.88;;;0.68;;
38111;SDS011;64011;56.312;44.048;2024-01-11T01:18:30;4.45;;;1.27;;
38111;SDS011;64011;56.312;44.048;2024-01-11T01:20:32;4.85;;;1.27;;
38111;SDS011;64011;56.312;44.048;2024-01-11T01:22:33;4.53;;;1.10;;
38111;SDS011;64011;56.312;44.048;2024-01-11T01:24:34;0.65;;;0.55;;
38111;SDS011;64011;56.312;44.048;2024-01-11T01:26:35;6.95;;;1.75;;
38111;SDS011;64011;56.312;44.048;2024-01-11T01:28:36;5.07;;;1.00;;
38111;SDS011;64011;56.312;44.048;2024-01-11T01:30:37;3.55;;;1.05;;
38111;SDS011;64011;56.312;44.048;2024-01-11T01:32:38;2.47;;;0.65;;
38111;SDS011;64011;56.312;44.048;2024-01-11T01:34:38;1.65;;;0.73;;
38111;SDS011;64011;56.312;44.048;2024-01-11T01:36:40;1.80;;;0.80;;
38111;SDS011;64011;56.312;44.048;2024-01-11T01:38:41;0.93;;;0.40;;
38111;SDS011;64011;56.312;44.048;2024-01-11T01:40:42;1.70;;;0.65;;
38111;SDS011;64011;56.312;44.048;2024-01-11T01:42:43;3.97;;;0.77;;
38111;SDS011;64011;56.312;44.048;2024-01-11T01:44:43;3.05;;;0.73;;
38111;SDS011;64011;56.312;44.048;2024-01-11T01:46:44;2.88;;;0.50;;
38111;SDS011;64011;56.312;44.048;2024-01-11T01:48:45;2.10;;;0.77;;
38111;SDS011;64011;56.312;44.048;2024-01-11T01:50:46;3.75;;;0.73;;
38111;SDS011;64011;56.312;44.048;2024-01-11T01:52:48;4.53;;;1.08;;
38111;SDS011;64011;56.312;44.048;2024-01-11T01:54:49;3.45;;;1.15;;
38111;SDS011;64011;56.312;44.048;2024-01-11T01:56:50;5.68;;;1.40;;
38111;SDS011;64011;56.312;44.048;2024-01-11T01:58:52;2.03;;;0.88;;
38111;SDS011;64011;56.312;44.048;2024-01-11T02:00:54;3.40;;;1.20;;
38111;SDS011;64011;56.312;44.048;2024-01-11T02:02:54;3.25;;;0.93;;
38111;SDS011;64011;56.312;44.048;2024-01-11T02:04:55;2.13;;;0.82;;
38111;SDS011;64011;56.312;44.048;2024-01-11T02:06:56;1.88;;;0.68;;
38111;SDS011;64011;56.312;44.048;2024-01-11T02:08:59;2.65;;;0.60;;
38111;SDS011;64011;56.312;44.048;2024-01-11T02:11:01;5.07;;;1.17;;
38111;SDS011;64011;56.312;44.048;2024-01-11T02:13:02;2.35;;;0.77;;
38111;SDS011;64011;56.312;44.048;2024-01-11T02:15:03;1.80;;;0.73;;
38111;SDS011;64011;56.312;44.048;2024-01-11T02:17:12;4.07;;;1.00;;
38111;SDS011;64011;56.312;44.048;2024-01-11T02:19:32;3.58;;;1.00;;
38111;SDS011;64011;56.312;44.048;2024-01-11T02:21:33;5.20;;;1.20;;
38111;SDS011;64011;56.312;44.048;2024-01-11T02:23:34;4.05;;;0.70;;
38111;SDS011;64011;56.312;44.048;2024-01-11T02:25:38;4.05;;;1.15;;
38111;SDS011;64011;56.312;44.048;2024-01-11T02:27:45;2.13;;;0.63;;
38111;SDS011;64011;56.312;44.048;2024-01-11T02:29:46;3.33;;;0.52;;
38111;SDS011;64011;56.312;44.048;2024-01-11T02:31:47;6.50;;;1.35;;
38111;SDS011;64011;56.312;44.048;2024-01-11T02:33:48;2.78;;;0.82;;
38111;SDS011;64011;56.312;44.048;2024-01-11T02:35:49;2.80;;;0.90;;
38111;SDS011;64011;56.312;44.048;2024-01-11T02:37:49;5.22;;;1.15;;
38111;SDS011;64011;56.312;44.048;2024-01-11T02:39:50;3.40;;;0.73;;
38111;SDS011;64011;56.312;44.048;2024-01-11T02:41:53;3.83;;;0.85;;
38111;SDS011;64011;56.312;44.048;2024-01-11T02:43:55;3.13;;;0.88;;
38111;SDS011;64011;56.312;44.048;2024-01-11T02:45:56;6.10;;;1.65;;
38111;SDS011;64011;56.312;44.048;2024-01-11T02:47:57;3.50;;;0.93;;
38111;SDS011;64011;56.312;44.048;2024-01-11T02:49:58;5.78;;;0.85;;
38111;SDS011;64011;56.312;44.048;2024-01-11T02:51:58;4.28;;;0.50;;
38111;SDS011;64011;56.312;44.048;2024-01-11T02:53:59;6.78;;;1.08;;
38111;SDS011;64011;56.312;44.048;2024-01-11T02:56:00;3.15;;;0.80;;
38111;SDS011;64011;56.312;44.048;2024-01-11T02:58:03;6.25;;;1.08;;
38111;SDS011;64011;56.312;44.048;2024-01-11T03:00:04;3.75;;;0.90;;
38111;SDS011;64011;56.312;44.048;2024-01-11T03:02:06;2.55;;;0.93;;
38111;SDS011;64011;56.312;44.048;2024-01-11T03:04:06;2.92;;;0.80;;
38111;SDS011;64011;56.312;44.048;2024-01-11T03:06:07;2.95;;;0.50;;
38111;SDS011;64011;56.312;44.048;2024-01-11T03:08:08;4.85;;;1.27;;
38111;SDS011;64011;56.312;44.048;2024-01-11T03:10:09;4.03;;;0.98;;
38111;SDS011;64011;56.312;44.048;2024-01-11T03:12:10;7.80;;;1.02;;
38111;SDS011;64011;56.312;44.048;2024-01-11T03:14:12;6.18;;;1.33;;
38111;SDS011;64011;56.312;44.048;2024-01-11T03:16:13;1.95;;;0.60;;
38111;SDS011;64011;56.312;44.048;2024-01-11T03:18:14;4.57;;;0.90;;
38111;SDS011;64011;56.312;44.048;2024-01-11T03:20:14;4.65;;;1.08;;
38111;SDS011;64011;56.312;44.048;2024-01-11T03:22:15;4.85;;;0.52;;
38111;SDS011;64011;56.312;44.048;2024-01-11T03:24:16;4.60;;;0.90;;
38111;SDS011;64011;56.312;44.048;2024-01-11T03:26:17;1.63;;;0.55;;
38111;SDS011;64011;56.312;44.048;2024-01-11T03:28:18;3.83;;;1.20;;
38111;SDS011;64011;56.312;44.048;2024-01-11T03:30:20;3.05;;;0.82;;
38111;SDS011;64011;56.312;44.048;2024-01-11T03:32:21;4.45;;;0.80;;
38111;SDS011;64011;56.312;44.048;2024-01-11T03:34:22;4.20;;;1.05;;
38111;SDS011;64011;56.312;44.048;2024-01-11T03:36:23;0.73;;;0.38;;
38111;SDS011;64011;56.312;44.048;2024-01-11T03:38:24;3.08;;;0.80;;
38111;SDS011;64011;56.312;44.048;2024-01-11T03:40:25;5.00;;;1.10;;
38111;SDS011;64011;56.312;44.048;2024-01-11T03:42:26;2.78;;;0.60;;
38111;SDS011;64011;56.312;44.048;2024-01-11T03:44:27;2.67;;;0.60;;
38111;SDS011;64011;56.312;44.048;2024-01-11T03:46:29;6.15;;;1.30;;
38111;SDS011;64011;56.312;44.048;2024-01-11T03:48:30;2.90;;;0.90;;
38111;SDS011;64011;56.312;44.048;2024-01-11T03:50:31;4.00;;;1.20;;
38111;SDS011;64011;56.312;44.048;2024-01-11T03:52:32;1.60;;;0.68;;
38111;SDS011;64011;56.312;44.048;2024-01-11T03:54:33;3.33;;;0.80;;
38111;SDS011;64011;56.312;44.048;2024-01-11T03:56:36;3.22;;;0.68;;
38111;SDS011;64011;56.312;44.048;2024-01-11T03:58:38;3.45;;;0.90;;
38111;SDS011;64011;56.312;44.048;2024-01-11T04:00:39;1.55;;;0.77;;
38111;SDS011;64011;56.312;44.048;2024-01-11T04:02:41;4.35;;;1.00;;
38111;SDS011;64011;56.312;44.048;2024-01-11T04:04:42;1.73;;;0.70;;
38111;SDS011;64011;56.312;44.048;2024-01-11T04:06:43;1.75;;;0.70;;
38111;SDS011;64011;56.312;44.048;2024-01-11T04:08:44;6.28;;;1.08;;
38111;SDS011;64011;56.312;44.048;2024-01-11T04:10:45;4.55;;;1.10;;
38111;SDS011;64011;56.312;44.048;2024-01-11T04:12:46;3.53;;;1.42;;
38111;SDS011;64011;56.312;44.048;2024-01-11T04:14:46;4.95;;;0.93;;
38111;SDS011;64011;56.312;44.048;2024-01-11T04:16:47;9.15;;;2.00;;
38111;SDS011;64011;56.312;44.048;2024-01-11T04:18:50;3.95;;;0.80;;
38111;SDS011;64011;56.312;44.048;2024-01-11T04:20:51;2.47;;;0.88;;
38111;SDS011;64011;56.312;44.048;2024-01-11T04:22:51;3.85;;;1.13;;
38111;SDS011;64011;56.312;44.048;2024-01-11T04:24:52;4.70;;;1.20;;
38111;SDS011;64011;56.312;44.048;2024-01-11T04:26:53;2.63;;;1.00;;
38111;SDS011;64011;56.312;44.048;2024-01-11T04:28:54;6.18;;;1.00;;
38111;SDS011;64011;56.312;44.048;2024-01-11T04:30:55;3.15;;;0.85;;
38111;SDS011;64011;56.312;44.048;2024-01-11T04:32:56;5.80;;;1.13;;
38111;SDS011;64011;56.312;44.048;2024-01-11T04:34:59;1.95;;;0.60;;
38111;SDS011;64011;56.312;44.048;2024-01-11T04:36:59;3.55;;;0.90;;
38111;SDS011;64011;56.312;44.048;2024-01-11T04:39:00;8.05;;;0.98;;
38111;SDS011;64011;56.312;44.048;2024-01-11T04:41:01;1.85;;;0.63;;
38111;SDS011;64011;56.312;44.048;2024-01-11T04:43:02;6.03;;;0.90;;
38111;SDS011;64011;56.312;44.048;2024-01-11T04:45:03;4.15;;;0.95;;
38111;SDS011;64011;56.312;44.048;2024-01-11T04:47:05;2.42;;;0.40;;
38111;SDS011;64011;56.312;44.048;2024-01-11T04:49:05;1.25;;;0.38;;
38111;SDS011;64011;56.312;44.048;2024-01-11T04:51:08;5.53;;;1.20;;
38111;SDS011;64011;56.312;44.048;2024-01-11T04:53:08;1.55;;;0.57;;
38111;SDS011;64011;56.312;44.048;2024-01-11T04:55:09;0.90;;;0.40;;
38111;SDS011;64011;56.312;44.048;2024-01-11T04:57:10;4.10;;;1.38;;
38111;SDS011;64011;56.312;44.048;2024-01-11T04:59:11;1.95;;;0.68;;
38111;SDS011;64011;56.312;44.048;2024-01-11T05:01:12;2.17;;;1.05;;
38111;SDS011;64011;56.312;44.048;2024-01-11T05:03:13;1.20;;;0.73;;
38111;SDS011;64011;56.312;44.048;2024-01-11T05:05:14;4.60;;;1.02;;
38111;SDS011;64011;56.312;44.048;2024-01-11T05:07:16;8.73;;;1.38;;
38111;SDS011;64011;56.312;44.048;2024-01-11T05:09:17;2.78;;;0.80;;
38111;SDS011;64011;56.312;44.048;2024-01-11T05:11:18;4.90;;;0.98;;
38111;SDS011;64011;56.312;44.048;2024-01-11T05:13:20;1.75;;;0.90;;
38111;SDS011;64011;56.312;44.048;2024-01-11T05:15:21;9.73;;;1.30;;
38111;SDS011;64011;56.312;44.048;2024-01-11T05:17:22;0.98;;;0.30;;
38111;SDS011;64011;56.312;44.048;2024-01-11T05:19:22;4.43;;;0.90;;
38111;SDS011;64011;56.312;44.048;2024-01-11T05:21:23;5.03;;;0.90;;
38111;SDS011;64011;56.312;44.048;2024-01-11T05:23:26;6.13;;;1.02;;
38111;SDS011;64011;56.312;44.048;2024-01-11T05:25:27;2.53;;;0.50;;
38111;SDS011;64011;56.312;44.048;2024-01-11T05:27:28;6.85;;;1.65;;
38111;SDS011;64011;56.312;44.048;2024-01-11T05:29:28;6.20;;;1.33;;
38111;SDS011;64011;56.312;44.048;2024-01-11T05:31:29;4.68;;;0.73;;
38111;SDS011;64011;56.312;44.048;2024-01-11T05:33:30;2.47;;;1.10;;
38111;SDS011;64011;56.312;44.048;2024-01-11T05:35:31;4.30;;;1.30;;
38111;SDS011;64011;56.312;44.048;2024-01-11T05:37:32;5.72;;;1.73;;
38111;SDS011;64011;56.312;44.048;2024-01-11T05:39:34;5.55;;;1.80;;
38111;SDS011;64011;56.312;44.048;2024-01-11T05:41:35;6.10;;;1.45;;
38111;SDS011;64011;56.312;44.048;2024-01-11T05:43:36;5.07;;;1.30;;
38111;SDS011;64011;56.312;44.048;2024-01-11T05:45:37;5.55;;;1.27;;
38111;SDS011;64011;56.312;44.048;2024-01-11T05:47:38;1.75;;;0.70;;
38111;SDS011;64011;56.312;44.048;2024-01-11T05:49:39;5.53;;;1.02;;
38111;SDS011;64011;56.312;44.048;2024-01-11T05:51:40;5.65;;;1.30;;
38111;SDS011;64011;56.312;44.048;2024-01-11T05:53:41;7.72;;;2.05;;
38111;SDS011;64011;56.312;44.048;2024-01-11T05:55:43;4.13;;;0.98;;
38111;SDS011;64011;56.312;44.048;2024-01-11T05:57:44;4.43;;;1.10;;
38111;SDS011;64011;56.312;44.048;2024-01-11T05:59:44;5.80;;;1.25;;
38111;SDS011;64011;56.312;44.048;2024-01-11T06:01:46;4.28;;;1.10;;
38111;SDS011;64011;56.312;44.048;2024-01-11T06:03:46;2.70;;;0.68;;
38111;SDS011;64011;56.312;44.048;2024-01-11T06:05:47;3.10;;;1.20;;
38111;SDS011;64011;56.312;44.048;2024-01-11T06:07:48;11.32;;;1.63;;
38111;SDS011;64011;56.312;44.048;2024-01-11T06:09:49;3.97;;;0.80;;
38111;SDS011;64011;56.312;44.048;2024-01-11T06:11:51;3.08;;;0.93;;
38111;SDS011;64011;56.312;44.048;2024-01-11T06:13:51;5.90;;;1.25;;
38111;SDS011;64011;56.312;44.048;2024-01-11T06:15:52;5.18;;;1.02;;
38111;SDS011;64011;56.312;44.048;2024-01-11T06:17:53;4.18;;;1.50;;
38111;SDS011;64011;56.312;44.048;2024-01-11T06:19:53;3.15;;;0.80;;
38111;SDS011;64011;56.312;44.048;2024-01-11T06:21:54;5.10;;;0.93;;
38111;SDS011;64011;56.312;44.048;2024-01-11T06:23:55;3.60;;;0.85;;
38111;SDS011;64011;56.312;44.048;2024-01-11T06:25:55;2.88;;;1.08;;
38111;SDS011;64011;56.312;44.048;2024-01-11T06:27:58;4.20;;;1.40;;
38111;SDS011;64011;56.312;44.048;2024-01-11T06:29:58;6.85;;;1.35;;
38111;SDS011;64011;56.312;44.048;2024-01-11T06:31:59;10.02;;;1.58;;
38111;SDS011;64011;56.312;44.048;2024-01-11T06:34:00;10.38;;;1.70;;
38111;SDS011;64011;56.312;44.048;2024-01-11T06:36:00;10.77;;;2.30;;
38111;SDS011;64011;56.312;44.048;2024-01-11T06:38:01;5.47;;;1.40;;
38111;SDS011;64011;56.312;44.048;2024-01-11T06:40:02;3.22;;;1.08;;
38111;SDS011;64011;56.312;44.048;2024-01-11T06:42:04;8.02;;;2.28;;
38111;SDS011;64011;56.312;44.048;2024-01-11T06:44:07;5.60;;;1.63;;
38111;SDS011;64011;56.312;44.048;2024-01-11T06:46:08;11.82;;;1.25;;
38111;SDS011;64011;56.312;44.048;2024-01-11T06:48:08;6.05;;;1.65;;
38111;SDS011;64011;56.312;44.048;2024-01-11T06:50:11;1.90;;;0.73;;
38111;SDS011;64011;56.312;44.048;2024-01-11T06:52:12;9.10;;;1.80;;
38111;SDS011;64011;56.312;44.048;2024-01-11T06:54:13;9.23;;;2.45;;
38111;SDS011;64011;56.312;44.048;2024-01-11T06:56:14;6.47;;;1.30;;
38111;SDS011;64011;56.312;44.048;2024-01-11T06:58:15;5.43;;;1.25;;
38111;SDS011;64011;56.312;44.048;2024-01-11T07:00:18;7.20;;;1.73;;
38111;SDS011;64011;56.312;44.048;2024-01-11T07:02:19;8.68;;;2.80;;
38111;SDS011;64011;56.312;44.048;2024-01-11T07:04:20;7.45;;;1.83;;
38111;SDS011;64011;56.312;44.048;2024-01-11T07:06:20;6.05;;;1.17;;
38111;SDS011;64011;56.312;44.048;2024-01-11T07:08:21;4.85;;;1.02;;
38111;SDS011;64011;56.312;44.048;2024-01-11T07:10:22;3.88;;;0.95;;
38111;SDS011;64011;56.312;44.048;2024-01-11T07:12:22;4.65;;;1.42;;
38111;SDS011;64011;56.312;44.048;2024-01-11T07:14:23;4.05;;;1.27;;
38111;SDS011;64011;56.312;44.048;2024-01-11T07:16:26;7.38;;;1.65;;
38111;SDS011;64011;56.312;44.048;2024-01-11T07:18:26;6.68;;;1.73;;
38111;SDS011;64011;56.312;44.048;2024-01-11T07:20:27;7.28;;;1.30;;
38111;SDS011;64011;56.312;44.048;2024-01-11T07:22:28;9.55;;;2.63;;
38111;SDS011;64011;56.312;44.048;2024-01-11T07:24:28;8.63;;;2.17;;
38111;SDS011;64011;56.312;44.048;2024-01-11T07:26:29;6.25;;;1.77;;
38111;SDS011;64011;56.312;44.048;2024-01-11T07:28:30;2.83;;;1.15;;
38111;SDS011;64011;56.312;44.048;2024-01-11T07:30:31;5.05;;;1.60;;
38111;SDS011;64011;56.312;44.048;2024-01-11T07:32:33;7.47;;;1.83;;
38111;SDS011;64011;56.312;44.048;2024-01-11T07:34:34;6.45;;;1.50;;
38111;SDS011;64011;56.312;44.048;2024-01-11T07:36:35;4.57;;;1.23;;
38111;SDS011;64011;56.312;44.048;2024-01-11T07:38:35;8.40;;;2.45;;
38111;SDS011;64011;56.312;44.048;2024-01-11T07:40:36;3.83;;;1.00;;
38111;SDS011;64011;56.312;44.048;2024-01-11T07:42:37;4.35;;;1.60;;
38111;SDS011;64011;56.312;44.048;2024-01-11T07:44:38;13.68;;;3.67;;
38111;SDS011;64011;56.312;44.048;2024-01-11T07:46:38;8.10;;;1.65;;
38111;SDS011;64011;56.312;44.048;2024-01-11T07:48:41;8.65;;;2.33;;
38111;SDS011;64011;56.312;44.048;2024-01-11T07:50:41;7.82;;;2.33;;
38111;SDS011;64011;56.312;44.048;2024-01-11T07:52:42;7.05;;;1.30;;
38111;SDS011;64011;56.312;44.048;2024-01-11T07:54:43;8.98;;;1.98;;
38111;SDS011;64011;56.312;44.048;2024-01-11T07:56:44;12.48;;;3.20;;
38111;SDS011;64011;56.312;44.048;2024-01-11T07:58:44;10.20;;;2.30;;
38111;SDS011;64011;56.312;44.048;2024-01-11T08:00:46;6.57;;;2.15;;
38111;SDS011;64011;56.312;44.048;2024-01-11T08:02:47;6.88;;;2.00;;
38111;SDS011;64011;56.312;44.048;2024-01-11T08:04:49;9.55;;;2.33;;
38111;SDS011;64011;56.312;44.048;2024-01-11T08:06:50;10.55;;;2.70;;
38111;SDS011;64011;56.312;44.048;2024-01-11T08:08:51;13.30;;;3.67;;
38111;SDS011;64011;56.312;44.048;2024-01-11T08:10:51;9.52;;;1.85;;
38111;SDS011;64011;56.312;44.048;2024-01-11T08:12:52;11.15;;;2.40;;
38111;SDS011;64011;56.312;44.048;2024-01-11T08:14:53;4.68;;;1.35;;
38111;SDS011;64011;56.312;44.048;2024-01-11T08:16:53;11.18;;;2.80;;
38111;SDS011;64011;56.312;44.048;2024-01-11T08:18:54;12.73;;;2.88;;
38111;SDS011;64011;56.312;44.048;2024-01-11T08:20:56;10.48;;;2.35;;
38111;SDS011;64011;56.312;44.048;2024-01-11T08:22:57;16.35;;;3.55;;
38111;SDS011;64011;56.312;44.048;2024-01-11T08:24:58;6.57;;;1.50;;
38111;SDS011;64011;56.312;44.048;2024-01-11T08:26:58;7.00;;;2.90;;
38111;SDS011;64011;56.312;44.048;2024-01-11T08:28:59;6.57;;;2.05;;
38111;SDS011;64011;56.312;44.048;2024-01-11T08:31:00;9.25;;;2.15;;
38111;SDS011;64011;56.312;44.048;2024-01-11T08:33:00;10.20;;;3.00;;
38111;SDS011;64011;56.312;44.048;2024-01-11T08:35:01;5.85;;;1.63;;
38111;SDS011;64011;56.312;44.048;2024-01-11T08:37:05;11.80;;;3.30;;
38111;SDS011;64011;56.312;44.048;2024-01-11T08:39:06;8.88;;;2.40;;
38111;SDS011;64011;56.312;44.048;2024-01-11T08:41:06;13.88;;;3.70;;
38111;SDS011;64011;56.312;44.048;2024-01-11T08:43:07;13.38;;;3.78;;
38111;SDS011;64011;56.312;44.048;2024-01-11T08:45:08;7.45;;;2.50;;
38111;SDS011;64011;56.312;44.048;2024-01-11T08:47:09;5.68;;;2.05;;
38111;SDS011;64011;56.312;44.048;2024-01-11T08:49:10;8.93;;;2.33;;
38111;SDS011;64011;56.312;44.048;2024-01-11T08:51:11;14.80;;;3.95;;
38111;SDS011;64011;56.312;44.048;2024-01-11T08:53:13;10.43;;;2.70;;
38111;SDS011;64011;56.312;44.048;2024-01-11T08:55:14;11.30;;;2.88;;
38111;SDS011;64011;56.312;44.048;2024-01-11T08:57:15;12.25;;;3.30;;
38111;SDS011;64011;56.312;44.048;2024-01-11T08:59:15;9.07;;;2.38;;
38111;SDS011;64011;56.312;44.048;2024-01-11T09:01:16;10.00;;;2.78;;
38111;SDS011;64011;56.312;44.048;2024-01-11T09:03:17;12.30;;;3.05;;
38111;SDS011;64011;56.312;44.048;2024-01-11T09:05:18;10.88;;;2.80;;
38111;SDS011;64011;56.312;44.048;2024-01-11T09:07:19;5.53;;;1.70;;
38111;SDS011;64011;56.312;44.048;2024-01-11T09:09:21;7.65;;;2.38;;
38111;SDS011;64011;56.312;44.048;2024-01-11T09:11:22;12.38;;;2.53;;
38111;SDS011;64011;56.312;44.048;2024-01-11T09:13:22;9.18;;;2.55;;
38111;SDS011;64011;56.312;44.048;2024-01-11T09:15:23;3.83;;;1.30;;
38111;SDS011;64011;56.312;44.048;2024-01-11T09:17:24;4.55;;;1.25;;
38111;SDS011;64011;56.312;44.048;2024-01-11T09:19:25;9.07;;;1.77;;
38111;SDS011;64011;56.312;44.048;2024-01-11T09:21:27;10.82;;;2.70;;
38111;SDS011;64011;56.312;44.048;2024-01-11T09:23:27;15.40;;;2.13;;
38111;SDS011;64011;56.312;44.048;2024-01-11T09:25:29;13.80;;;2.97;;
38111;SDS011;64011;56.312;44.048;2024-01-11T09:27:30;6.47;;;2.03;;
38111;SDS011;64011;56.312;44.048;2024-01-11T09:29:31;10.90;;;2.88;;
38111;SDS011;64011;56.312;44.048;2024-01-11T09:31:32;11.20;;;2.85;;
38111;SDS011;64011;56.312;44.048;2024-01-11T09:33:32;7.82;;;2.33;;
38111;SDS011;64011;56.312;44.048;2024-01-11T09:35:33;10.02;;;2.15;;
38111;SDS011;64011;56.312;44.048;2024-01-11T09:37:35;6.72;;;2.10;;
38111;SDS011;64011;56.312;44.048;2024-01-11T09:39:36;9.43;;;2.38;;
38111;SDS011;64011;56.312;44.048;2024-01-11T09:41:38;10.55;;;2.83;;
38111;SDS011;64011;56.312;44.048;2024-01-11T09:43:43;14.85;;;3.78;;
38111;SDS011;64011;56.312;44.048;2024-01-11T09:45:44;8.65;;;2.13;;
38111;SDS011;64011;56.312;44.048;2024-01-11T09:47:44;10.48;;;2.50;;
38111;SDS011;64011;56.312;44.048;2024-01-11T09:49:46;7.93;;;2.33;;
38111;SDS011;64011;56.312;44.048;2024-01-11T09:51:48;13.63;;;3.55;;
38111;SDS011;64011;56.312;44.048;2024-01-11T09:53:49;13.40;;;3.22;;
38111;SDS011;64011;56.312;44.048;2024-01-11T09:55:50;15.52;;;3.90;;
38111;SDS011;64011;56.312;44.048;2024-01-11T09:57:53;15.48;;;4.68;;
38111;SDS011;64011;56.312;44.048;2024-01-11T09:59:57;14.98;;;3.78;;
38111;SDS011;64011;56.312;44.048;2024-01-11T10:01:58;10.55;;;2.90;;
38111;SDS011;64011;56.312;44.048;2024-01-11T10:03:59;7.45;;;1.90;;
38111;SDS011;64011;56.312;44.048;2024-01-11T10:06:00;7.57;;;2.15;;
38111;SDS011;64011;56.312;44.048;2024-01-11T10:08:03;10.70;;;3.33;;
38111;SDS011;64011;56.312;44.048;2024-01-11T10:10:04;16.42;;;4.90;;
38111;SDS011;64011;56.312;44.048;2024-01-11T10:12:06;10.63;;;3.70;;
38111;SDS011;64011;56.312;44.048;2024-01-11T10:14:10;14.60;;;3.90;;
38111;SDS011;64011;56.312;44.048;2024-01-11T10:16:12;18.55;;;4.60;;
38111;SDS011;64011;56.312;44.048;2024-01-11T10:18:14;12.60;;;3.53;;
38111;SDS011;64011;56.312;44.048;2024-01-11T10:20:15;23.92;;;4.60;;
38111;SDS011;64011;56.312;44.048;2024-01-11T10:22:16;8.90;;;2.47;;
38111;SDS011;64011;56.312;44.048;2024-01-11T10:24:17;16.95;;;5.20;;
38111;SDS011;64011;56.312;44.048;2024-01-11T10:26:18;15.77;;;4.85;;
38111;SDS011;64011;56.312;44.048;2024-01-11T10:28:19;16.13;;;4.85;;
38111;SDS011;64011;56.312;44.048;2024-01-11T10:30:22;16.90;;;4.57;;
38111;SDS011;64011;56.312;44.048;2024-01-11T10:32:22;13.38;;;4.50;;
38111;SDS011;64011;56.312;44.048;2024-01-11T10:34:23;15.98;;;5.13;;
38111;SDS011;64011;56.312;44.048;2024-01-11T10:36:24;16.73;;;4.60;;
38111;SDS011;64011;56.312;44.048;2024-01-11T10:38:25;18.05;;;5.15;;
38111;SDS011;64011;56.312;44.048;2024-01-11T10:40:26;23.65;;;7.53;;
38111;SDS011;64011;56.312;44.048;2024-01-11T10:42:28;19.92;;;5.97;;
38111;SDS011;64011;56.312;44.048;2024-01-11T10:44:33;20.85;;;7.10;;
38111;SDS011;64011;56.312;44.048;2024-01-11T10:46:35;12.75;;;3.55;;
38111;SDS011;64011;56.312;44.048;2024-01-11T10:48:37;21.98;;;6.47;;
38111;SDS011;64011;56.312;44.048;2024-01-11T10:50:41;16.90;;;4.93;;
38111;SDS011;64011;56.312;44.048;2024-01-11T10:52:43;20.05;;;5.63;;
38111;SDS011;64011;56.312;44.048;2024-01-11T10:54:54;22.58;;;7.03;;
38111;SDS011;64011;56.312;44.048;2024-01-11T10:56:56;19.48;;;5.32;;
38111;SDS011;64011;56.312;44.048;2024-01-11T10:58:59;21.80;;;6.00;;
38111;SDS011;64011;56.312;44.048;2024-01-11T11:01:01;14.75;;;4.93;;
38111;SDS011;64011;56.312;44.048;2024-01-11T11:03:04;16.20;;;5.68;;
38111;SDS011;64011;56.312;44.048;2024-01-11T11:05:05;21.77;;;8.32;;
38111;SDS011;64011;56.312;44.048;2024-01-11T11:07:08;23.13;;;8.70;;
38111;SDS011;64011;56.312;44.048;2024-01-11T11:09:08;21.65;;;6.88;;
38111;SDS011;64011;56.312;44.048;2024-01-11T11:11:10;23.30;;;8.38;;
38111;SDS011;64011;56.312;44.048;2024-01-11T11:13:11;20.60;;;6.50;;
38111;SDS011;64011;56.312;44.048;2024-01-11T11:15:13;20.88;;;6.55;;
38111;SDS011;64011;56.312;44.048;2024-01-11T11:17:15;19.95;;;6.50;;
38111;SDS011;64011;56.312;44.048;2024-01-11T11:19:17;28.08;;;7.18;;
38111;SDS011;64011;56.312;44.048;2024-01-11T11:21:18;20.08;;;6.72;;
38111;SDS011;64011;56.312;44.048;2024-01-11T11:23:19;22.15;;;8.10;;
38111;SDS011;64011;56.312;44.048;2024-01-11T11:25:23;20.13;;;7.03;;
38111;SDS011;64011;56.312;44.048;2024-01-11T11:27:24;21.42;;;6.32;;
38111;SDS011;64011;56.312;44.048;2024-01-11T11:29:25;17.45;;;6.32;;
38111;SDS011;64011;56.312;44.048;2024-01-11T11:31:36;22.08;;;6.60;;
38111;SDS011;64011;56.312;44.048;2024-01-11T11:33:37;19.42;;;6.57;;
38111;SDS011;64011;56.312;44.048;2024-01-11T11:35:39;19.38;;;6.30;;
38111;SDS011;64011;56.312;44.048;2024-01-11T11:37:40;20.02;;;7.28;;
38111;SDS011;64011;56.312;44.048;2024-01-11T11:39:41;17.35;;;5.50;;
38111;SDS011;64011;56.312;44.048;2024-01-11T11:41:42;17.17;;;5.75;;
38111;SDS011;64011;56.312;44.048;2024-01-11T11:43:43;16.73;;;5.75;;
38111;SDS011;64011;56.312;44.048;2024-01-11T11:45:48;18.17;;;5.72;;
38111;SDS011;64011;56.312;44.048;2024-01-11T11:47:52;18.33;;;5.63;;
38111;SDS011;64011;56.312;44.048;2024-01-11T11:49:56;20.65;;;6.15;;
38111;SDS011;64011;56.312;44.048;2024-01-11T11:51:59;17.35;;;5.60;;
38111;SDS011;64011;56.312;44.048;2024-01-11T11:54:00;15.13;;;5.20;;
38111;SDS011;64011;56.312;44.048;2024-01-11T11:56:01;19.70;;;6.35;;
38111;SDS011;64011;56.312;44.048;2024-01-11T11:58:04;20.27;;;5.32;;